»·PEaware :: N210AR 1L1-2O7

N210AR :: 1L1-2O7

FLIGHT INFORMATION

Flight Status: Arrived
Operator: Privately registered:
United States
More flights under this callsign
Pilot: Max S. (16657)
Aircraft: CESSNA 172 SKYHAWK
(C172)
More flights by this aircraft type
Origin: 1L1 Lincoln Co
United States
Destination: 2O7 Independence
United States
More flights between these airports :: More routes between these airports
Route:
File this flight plan on PilotEdge
Remarks: ALPHABET CHALLENGE
Altitude:
(Current/Filed)
8,500ft
Speed:
(Current/Filed)
110kts
Departed: 03-Feb-20 08:29 AM
Arrived: 03-Feb-20 11:04 AM
Distance/Time
Traveled:
190nm/2:34
Distance/Time
To Go:
Arrived

Flight Plot

Page will automatically refresh every two minutes.


Map Options




Map Legend


Flown Route
Filed Route
Departure Airport
Arrival Airport
Navaid (VOR, NDB)
Fix

Horizontal Profiles

Position Reports

Time Latitude Longitude Heading Altitude Ground
Speed
03-Feb-20 08:21 37.781292 -114.420257 223 4797ft 0kts
03-Feb-20 08:22 37.781292 -114.420257 223 4797ft 0kts
03-Feb-20 08:23 37.781292 -114.420257 223 4797ft 0kts
03-Feb-20 08:24 37.781292 -114.420257 223 4797ft 0kts
03-Feb-20 08:25 37.781290 -114.420258 214 4796ft 0kts
03-Feb-20 08:26 37.781290 -114.420258 214 4796ft 0kts
03-Feb-20 08:27 37.782121 -114.421082 0 4801ft 19kts
03-Feb-20 08:28 37.798905 -114.422759 340 5087ft 73kts
03-Feb-20 08:29 37.810567 -114.436925 263 5529ft 68kts
03-Feb-20 08:30 37.806453 -114.460368 255 5926ft 68kts
03-Feb-20 08:31 37.801292 -114.484794 266 6267ft 78kts
03-Feb-20 08:32 37.799333 -114.512488 255 6709ft 79kts
03-Feb-20 08:33 37.800291 -114.540435 232 7105ft 84kts
03-Feb-20 08:34 37.803992 -114.526825 358 7443ft 83kts
03-Feb-20 08:35 37.792046 -114.537945 183 7779ft 83kts
03-Feb-20 08:36 37.769290 -114.543022 194 8171ft 83kts
03-Feb-20 08:37 37.746084 -114.545278 170 8523ft 87kts
03-Feb-20 08:38 37.721773 -114.556352 199 8642ft 108kts
03-Feb-20 08:39 37.691408 -114.569780 198 8638ft 119kts
03-Feb-20 08:40 37.659595 -114.582390 196 8636ft 118kts
03-Feb-20 08:41 37.629009 -114.593679 196 8637ft 112kts
03-Feb-20 08:42 37.599232 -114.604530 195 8637ft 110kts
03-Feb-20 08:43 37.569704 -114.615346 196 8637ft 110kts
03-Feb-20 08:44 37.540398 -114.626124 196 8637ft 110kts
03-Feb-20 08:45 37.511060 -114.636932 196 8637ft 110kts
03-Feb-20 08:46 37.481750 -114.647732 196 8637ft 110kts
03-Feb-20 08:47 37.450304 -114.659346 208 8540ft 120kts
03-Feb-20 08:48 37.422152 -114.676675 235 8565ft 107kts
03-Feb-20 08:49 37.399769 -114.701584 235 8580ft 107kts
03-Feb-20 08:50 37.377664 -114.726514 234 8593ft 107kts
03-Feb-20 08:51 37.355487 -114.751697 235 8599ft 107kts
03-Feb-20 08:52 37.333340 -114.776785 235 8600ft 107kts
03-Feb-20 08:53 37.307168 -114.797399 217 8605ft 115kts
03-Feb-20 08:54 37.278247 -114.814805 217 8607ft 115kts
03-Feb-20 08:55 37.249270 -114.832230 217 8608ft 115kts
03-Feb-20 08:56 37.220345 -114.849638 218 8606ft 115kts
03-Feb-20 08:57 37.191268 -114.867116 218 8604ft 116kts
03-Feb-20 08:58 37.161179 -114.885518 217 8602ft 123kts
03-Feb-20 08:59 37.130278 -114.904654 218 8598ft 124kts
03-Feb-20 09:00 37.099286 -114.923837 218 8592ft 123kts
03-Feb-20 09:01 37.068805 -114.942682 217 8592ft 121kts
03-Feb-20 09:02 37.036804 -114.957461 204 8595ft 124kts
03-Feb-20 09:03 37.002442 -114.966714 192 8394ft 138kts
03-Feb-20 09:04 36.964267 -114.966156 210 7902ft 131kts
03-Feb-20 09:05 36.929518 -114.979380 197 7397ft 134kts
03-Feb-20 09:06 36.891752 -114.978820 180 6913ft 139kts
03-Feb-20 09:07 36.854177 -114.969108 175 6526ft 131kts
03-Feb-20 09:08 36.820963 -114.958565 175 6587ft 123kts
03-Feb-20 09:09 36.787834 -114.950599 187 6590ft 118kts
03-Feb-20 09:10 36.754953 -114.947477 187 6581ft 119kts
03-Feb-20 09:11 36.721432 -114.947245 198 6474ft 115kts
03-Feb-20 09:12 36.689666 -114.951728 197 6472ft 115kts
03-Feb-20 09:13 36.657895 -114.955950 196 6472ft 114kts
03-Feb-20 09:14 36.626346 -114.960557 196 6472ft 115kts
03-Feb-20 09:15 36.594521 -114.965144 196 6476ft 115kts
03-Feb-20 09:16 36.562803 -114.969926 197 6473ft 115kts
03-Feb-20 09:17 36.530672 -114.974157 197 6493ft 117kts
03-Feb-20 09:18 36.498672 -114.980827 212 6492ft 112kts
03-Feb-20 09:19 36.471302 -114.997950 220 6491ft 111kts
03-Feb-20 09:20 36.443858 -115.015949 219 6490ft 112kts
03-Feb-20 09:21 36.414934 -115.035774 230 6123ft 121kts
03-Feb-20 09:22 36.391894 -115.063007 235 5965ft 108kts
03-Feb-20 09:23 36.370843 -115.089176 248 5991ft 105kts
03-Feb-20 09:24 36.354735 -115.120025 256 5959ft 105kts
03-Feb-20 09:25 36.353872 -115.152840 284 5967ft 95kts
03-Feb-20 09:26 36.356666 -115.185378 297 5968ft 91kts
03-Feb-20 09:27 36.363637 -115.216329 293 5964ft 94kts
03-Feb-20 09:28 36.368894 -115.248309 292 5965ft 94kts
03-Feb-20 09:29 36.373497 -115.280496 292 5971ft 95kts
03-Feb-20 09:30 36.377908 -115.312817 289 5972ft 95kts
03-Feb-20 09:31 36.382177 -115.345013 290 5975ft 94kts
03-Feb-20 09:32 36.386433 -115.377289 288 5976ft 95kts
03-Feb-20 09:33 36.390548 -115.409179 287 6119ft 87kts
03-Feb-20 09:34 36.393608 -115.436793 288 6592ft 75kts
03-Feb-20 09:35 36.396297 -115.461152 288 7070ft 68kts
03-Feb-20 09:36 36.398744 -115.483374 289 7543ft 62kts
03-Feb-20 09:37 36.401021 -115.504042 291 8018ft 58kts
03-Feb-20 09:38 36.403032 -115.522932 291 8483ft 51kts
03-Feb-20 09:39 36.406902 -115.547307 292 8485ft 86kts
03-Feb-20 09:40 36.412049 -115.578611 290 8484ft 95kts
03-Feb-20 09:41 36.416693 -115.611316 289 8485ft 96kts
03-Feb-20 09:42 36.421081 -115.644286 288 8486ft 96kts
03-Feb-20 09:43 36.425349 -115.677107 287 8492ft 97kts
03-Feb-20 09:45 36.429641 -115.710446 287 8492ft 97kts
03-Feb-20 09:46 36.433911 -115.743782 287 8492ft 97kts
03-Feb-20 09:47 36.438164 -115.777075 287 8492ft 97kts
03-Feb-20 09:48 36.440681 -115.796816 287 8491ft 97kts
03-Feb-20 09:49 36.443176 -115.816547 287 8491ft 97kts
03-Feb-20 09:50 36.447402 -115.849893 287 8491ft 97kts
03-Feb-20 09:51 36.451678 -115.883620 287 8492ft 101kts
03-Feb-20 09:52 36.455978 -115.917724 287 8491ft 98kts
03-Feb-20 09:53 36.460197 -115.951133 287 8491ft 97kts
03-Feb-20 09:54 36.464399 -115.984551 287 8491ft 98kts
03-Feb-20 09:55 36.468597 -116.017946 287 8490ft 97kts
03-Feb-20 09:56 36.472778 -116.051290 287 8490ft 97kts
03-Feb-20 09:57 36.476951 -116.084672 287 8490ft 97kts
03-Feb-20 09:58 36.481114 -116.118046 287 8490ft 97kts
03-Feb-20 09:59 36.485249 -116.151284 287 8490ft 97kts
03-Feb-20 10:00 36.489398 -116.184701 287 8490ft 97kts
03-Feb-20 10:01 36.493523 -116.218016 287 8489ft 97kts
03-Feb-20 10:02 36.497658 -116.251436 287 8489ft 97kts
03-Feb-20 10:02 36.501085 -116.279255 287 8489ft 97kts
03-Feb-20 10:04 36.505858 -116.318083 287 8489ft 97kts
03-Feb-20 10:05 36.509959 -116.351511 287 8489ft 97kts
03-Feb-20 10:05 36.513349 -116.379205 287 8489ft 97kts
03-Feb-20 10:07 36.518104 -116.418150 287 8488ft 97kts
03-Feb-20 10:07 36.521480 -116.445859 287 8488ft 97kts
03-Feb-20 10:08 36.525529 -116.479164 287 8488ft 97kts
03-Feb-20 10:10 36.530247 -116.518074 287 8488ft 97kts
03-Feb-20 10:10 36.533599 -116.545796 287 8488ft 97kts
03-Feb-20 10:11 36.536920 -116.578525 286 8488ft 97kts
03-Feb-20 10:13 36.541128 -116.617529 287 8487ft 97kts
03-Feb-20 10:13 36.544435 -116.645319 287 8487ft 97kts
03-Feb-20 10:14 36.548446 -116.678807 287 8494ft 98kts
03-Feb-20 10:15 36.552480 -116.712543 287 8497ft 98kts
03-Feb-20 10:16 36.556517 -116.746378 288 8499ft 99kts
03-Feb-20 10:17 36.560564 -116.780486 290 8504ft 100kts
03-Feb-20 10:18 36.564711 -116.815291 289 8506ft 102kts
03-Feb-20 10:19 36.568872 -116.850416 289 8508ft 103kts
03-Feb-20 10:20 36.573036 -116.885697 289 8509ft 103kts
03-Feb-20 10:21 36.577242 -116.921359 289 8512ft 105kts
03-Feb-20 10:22 36.581524 -116.957771 288 8516ft 107kts
03-Feb-20 10:23 36.585872 -116.994926 287 8519ft 109kts
03-Feb-20 10:24 36.590319 -117.032985 286 8523ft 112kts
03-Feb-20 10:25 36.594824 -117.071669 285 8528ft 114kts
03-Feb-20 10:26 36.599413 -117.111185 284 8534ft 116kts
03-Feb-20 10:27 36.604067 -117.151425 284 8536ft 117kts
03-Feb-20 10:28 36.606453 -117.192133 275 8536ft 119kts
03-Feb-20 10:29 36.606040 -117.233523 275 8535ft 119kts
03-Feb-20 10:30 36.605463 -117.274861 274 8535ft 119kts
03-Feb-20 10:31 36.604867 -117.316114 274 8535ft 119kts
03-Feb-20 10:32 36.604254 -117.357523 274 8535ft 119kts
03-Feb-20 10:33 36.601432 -117.398846 260 8536ft 122kts
03-Feb-20 10:34 36.586111 -117.437129 245 8536ft 126kts
03-Feb-20 10:35 36.568303 -117.474784 245 8535ft 126kts
03-Feb-20 10:36 36.550514 -117.512361 245 8536ft 126kts
03-Feb-20 10:37 36.532747 -117.549829 245 8536ft 126kts
03-Feb-20 10:38 36.514942 -117.587350 245 8536ft 126kts
03-Feb-20 10:39 36.497073 -117.624912 245 8536ft 126kts
03-Feb-20 10:40 36.479205 -117.662405 244 8536ft 126kts
03-Feb-20 10:41 36.464457 -117.701422 259 8536ft 123kts
03-Feb-20 10:42 36.461005 -117.742103 291 8536ft 116kts
03-Feb-20 10:43 36.471899 -117.779769 295 8536ft 115kts
03-Feb-20 10:44 36.482903 -117.817278 295 8536ft 115kts
03-Feb-20 10:45 36.493856 -117.854683 295 8538ft 115kts
03-Feb-20 10:46 36.504816 -117.892173 295 8540ft 115kts
03-Feb-20 10:47 36.515747 -117.929623 295 8542ft 115kts
03-Feb-20 10:48 36.526974 -117.968006 295 8308ft 126kts
03-Feb-20 10:49 36.538155 -118.006202 295 7798ft 113kts
03-Feb-20 10:50 36.548900 -118.042894 296 7296ft 112kts
03-Feb-20 10:51 36.556291 -118.080708 280 6786ft 115kts
03-Feb-20 10:52 36.577973 -118.097186 349 6278ft 103kts
03-Feb-20 10:53 36.605172 -118.107849 342 5774ft 102kts
03-Feb-20 10:54 36.630303 -118.120891 328 5514ft 91kts
03-Feb-20 10:55 36.648683 -118.141384 325 5531ft 89kts
03-Feb-20 10:56 36.670472 -118.154945 340 5523ft 87kts
03-Feb-20 10:57 36.693361 -118.164355 343 5516ft 85kts
03-Feb-20 10:58 36.716333 -118.171571 346 5519ft 85kts
03-Feb-20 10:59 36.739872 -118.172183 354 5202ft 75kts
03-Feb-20 11:00 36.759601 -118.176740 335 4984ft 67kts
03-Feb-20 11:01 36.778616 -118.186350 333 5050ft 82kts
03-Feb-20 11:02 36.799200 -118.196571 340 4444ft 77kts
03-Feb-20 11:03 36.814763 -118.204106 339 3899ft 33kts
03-Feb-20 11:04 36.815247 -118.204569 152 3899ft 8kts
03-Feb-20 11:05 36.813391 -118.203389 154 3899ft 11kts
03-Feb-20 11:06 36.810086 -118.202819 252 3899ft 13kts
03-Feb-20 11:07 36.809850 -118.203166 349 3899ft 0kts
03-Feb-20 11:08 36.809850 -118.203166 349 3899ft 0kts

Navigation Log

Ident Type
Flight plan parsing failed, navigation log unavailable